Clio, West Virginia
Current Conditions -  °F | °C
As of 11:30 AM on Monday 26 Jan 2015 (Local Time) from KCRW Reporting Station
Light Snow Light Snow  
Wind Chill: 21°   Ceiling: 300
Heat Index: 30°   Visibility: 1mi
Dew Point: 29°   Wind: 12mph
Humidity: 96%   Direction: 270°W
Pressure: 29.76"   Gusts: 18mph
Location:  38.58°N, 81.3°W
Report Text: KCRW 261630Z 27010G16KT 1SM -SN BR OVC003 M01/M02 A2976 RMK AO2 RAE29PLE29 VLY FG P0001 T10111017 RVRNO
Loading
Personal Weather Stations






























Interactive Weather Map New forecast layout! Learn more

10-Day Weather Forecast

Advertisements
Track Severe Weather on mobile